This is the latest recevied weather packets stored in our database for station/object XE2MEM-21. If no packets are shown the sender has not sent any weather packets the latest 10 day(s).
| Time | Temp. | Humidity | Pressure | Rain* | Wind** | Luminosity | Snow |
|---|---|---|---|---|---|---|---|
| 1777617591 | 27.22° C | 100% | 1003.3 hPa | - | - | - | - |
| 1777616691 | 26.67° C | 100% | 1003.4 hPa | - | - | - | - |
| 1777615791 | 27.22° C | 100% | 1003.5 hPa | - | - | - | - |
| 1777615522 | 27.22° C | 100% | 1003.5 hPa | - | - | - | - |
| 1777614889 | 26.67° C | 100% | 1003.5 hPa | - | - | - | - |
| 1777613457 | 26.67° C | 100% | 1003.4 hPa | - | - | - | - |
| 1777612723 | 26.67° C | 100% | 1003.8 hPa | - | - | - | - |
| 1777611823 | 27.22° C | 100% | 1004 hPa | - | - | - | - |
| 1777610923 | 27.78° C | 100% | 1004.3 hPa | - | - | - | - |
| 1777610023 | 27.78° C | 100% | 1004.3 hPa | - | - | - | - |
| 1777609955 | 27.78° C | 100% | 1004.3 hPa | - | - | - | - |
| 1777609835 | 27.78° C | 100% | 1004.4 hPa | - | - | - | - |
| 1777609112 | 27.78° C | 100% | 1004.2 hPa | - | - | - | - |
| 1777609085 | 27.78° C | 100% | 1004.1 hPa | - | - | - | - |
| 1777608812 | 27.78° C | 100% | 1004.3 hPa | - | - | - | - |
| 1777608405 | 27.78° C | 100% | 1004.3 hPa | - | - | - | - |
| 1777605944 | 28.89° C | 100% | 1004.1 hPa | - | - | - | - |
| 1777599951 | 30° C | 72% | 1002.4 hPa | - | - | - | - |
| 1777599159 | 30.56° C | 69% | 1002.3 hPa | - | - | - | - |
| 1777599082 | 30.56° C | 69% | 1002.2 hPa | - | - | - | - |
| 1777598069 | 31.11° C | 71% | 1001.9 hPa | - | - | - | - |
| 1777598006 | 31.11° C | 71% | 1001.9 hPa | - | - | - | - |
| 1777597960 | 31.11° C | 72% | 1001.9 hPa | - | - | - | - |
| 1777597789 | 30.56° C | 76% | 1001.8 hPa | - | - | - | - |
| 1777597659 | 30.56° C | 75% | 1001.9 hPa | - | - | - | - |
* Rain since midnight (hover to see other rain measurements)
** Current wind speed in m/s (hover to see current wind gust speed)